createdAt,value
2022-10-24T00:05:41.241Z,19.50
2022-10-24T00:15:48.011Z,19.13
2022-10-24T00:25:49.594Z,19.38
2022-10-24T00:36:25.050Z,17.25
2022-10-24T00:46:26.660Z,19.05
2022-10-24T00:56:32.375Z,18.83
2022-10-24T01:06:50.270Z,18.88
2022-10-24T01:17:01.765Z,17.35
2022-10-24T01:27:45.348Z,18.38
2022-10-24T01:38:16.715Z,17.95
2022-10-24T01:48:22.485Z,18.30
2022-10-24T01:58:24.702Z,17.88
2022-10-24T02:08:33.921Z,19.10
2022-10-24T02:18:35.795Z,18.50
2022-10-24T02:28:43.478Z,18.03
2022-10-24T02:38:47.886Z,20.30
2022-10-24T02:49:09.682Z,21.55
2022-10-24T02:59:12.324Z,19.27
2022-10-24T03:19:20.208Z,22.15
2022-10-24T03:29:24.334Z,22.35
2022-10-24T03:39:27.450Z,22.98
2022-10-24T03:49:31.305Z,25.48
2022-10-24T03:59:32.946Z,26.88
2022-10-24T04:09:35.745Z,27.08
2022-10-24T04:19:38.468Z,27.67
2022-10-24T04:39:41.663Z,28.00
2022-10-24T04:49:45.353Z,27.70
2022-10-24T04:59:48.718Z,29.15
2022-10-24T05:09:50.364Z,29.90
2022-10-24T05:19:54.174Z,27.98
2022-10-24T05:29:56.093Z,27.75
2022-10-24T05:40:00.062Z,29.03
2022-10-24T05:50:01.999Z,27.30
2022-10-24T06:00:06.613Z,26.88
2022-10-24T06:10:11.288Z,27.48
2022-10-24T06:20:12.975Z,25.17
2022-10-24T06:30:14.613Z,25.13
2022-10-24T06:40:18.084Z,26.10
2022-10-24T06:50:20.816Z,26.83
2022-10-24T07:00:22.522Z,26.65
2022-10-24T07:10:26.276Z,25.92
2022-10-24T07:20:28.003Z,27.08
2022-10-24T07:30:30.689Z,28.23
2022-10-24T07:50:34.815Z,28.50
2022-10-24T08:10:42.845Z,24.08
2022-10-24T08:20:44.639Z,27.45
2022-10-24T08:31:10.392Z,26.70
2022-10-24T08:41:24.082Z,25.48
2022-10-24T08:51:42.184Z,22.48
2022-10-24T09:01:48.363Z,22.05
2022-10-24T09:12:04.251Z,23.52
2022-10-24T09:22:07.894Z,23.00
2022-10-24T09:32:26.961Z,19.95
2022-10-24T09:42:28.799Z,19.55
2022-10-24T09:52:51.310Z,20.37
2022-10-24T10:03:07.440Z,21.43
2022-10-24T10:13:12.880Z,22.80
2022-10-24T10:23:29.237Z,22.85
2022-10-24T10:33:56.772Z,24.25
2022-10-24T10:44:34.725Z,22.80
2022-10-24T10:55:05.830Z,23.52
2022-10-24T11:05:32.691Z,24.30
2022-10-24T11:15:40.786Z,23.77
2022-10-24T11:25:47.709Z,28.83
2022-10-24T11:36:11.091Z,29.50
2022-10-24T11:46:32.861Z,30.10
2022-10-24T11:56:42.280Z,31.83
2022-10-24T12:07:07.662Z,32.17
2022-10-24T12:17:24.212Z,30.13
2022-10-24T12:27:35.658Z,33.63
2022-10-24T12:37:40.265Z,30.88
2022-10-24T12:48:04.661Z,32.15
2022-10-24T12:58:30.829Z,31.73
2022-10-24T13:09:03.877Z,32.35
2022-10-24T13:19:17.281Z,30.88
2022-10-24T13:29:22.116Z,32.20
2022-10-24T13:39:27.958Z,30.08
2022-10-24T13:49:49.769Z,29.85
2022-10-24T13:59:57.521Z,29.47
2022-10-24T14:10:09.976Z,30.17
2022-10-24T14:30:19.997Z,28.30
2022-10-24T14:40:22.782Z,24.75
2022-10-24T14:50:41.032Z,25.00
2022-10-24T15:00:48.049Z,25.05
2022-10-24T15:10:52.001Z,25.23
2022-10-24T15:21:08.586Z,24.60
2022-10-24T15:31:11.805Z,25.55
2022-10-24T15:41:13.612Z,25.98
2022-10-24T15:51:21.427Z,26.83
2022-10-24T16:01:38.445Z,25.77
2022-10-24T16:11:42.157Z,27.38
2022-10-24T16:21:45.145Z,27.57
2022-10-24T16:31:49.140Z,29.48
2022-10-24T16:41:56.576Z,28.60
2022-10-24T16:51:59.244Z,29.08
2022-10-24T17:02:01.393Z,30.70
2022-10-24T17:12:03.648Z,30.48
2022-10-24T17:22:06.651Z,27.20
2022-10-24T17:32:13.134Z,33.20
2022-10-24T17:42:15.317Z,35.85
2022-10-24T17:52:23.200Z,41.58
2022-10-24T18:02:25.304Z,47.47
2022-10-24T18:12:30.181Z,45.73
2022-10-24T18:22:35.302Z,47.55
2022-10-24T18:32:38.898Z,50.97
2022-10-24T18:42:44.283Z,51.60
2022-10-24T18:53:22.372Z,51.92
2022-10-24T19:03:25.366Z,49.30
2022-10-24T19:13:29.808Z,52.60
2022-10-24T19:23:31.801Z,51.53
2022-10-24T19:33:33.908Z,50.60
2022-10-24T19:43:41.440Z,52.07
2022-10-24T19:53:46.899Z,54.28
2022-10-24T20:03:58.669Z,51.80
2022-10-24T20:14:06.398Z,57.03
2022-10-24T20:24:08.951Z,55.38
2022-10-24T20:44:21.837Z,55.15
2022-10-24T20:54:25.632Z,55.45
2022-10-24T21:04:29.543Z,52.05
2022-10-24T21:14:31.159Z,53.47
2022-10-24T21:24:33.832Z,52.40
2022-10-24T21:34:39.510Z,50.50
2022-10-24T21:44:42.162Z,51.03
2022-10-24T22:04:47.053Z,49.85
2022-10-24T22:14:51.351Z,49.00
2022-10-24T22:25:02.123Z,50.22
2022-10-24T22:35:04.174Z,47.67
2022-10-24T22:45:12.741Z,44.97
2022-10-24T22:55:21.988Z,46.28
2022-10-24T23:05:43.309Z,44.45
2022-10-24T23:15:45.049Z,41.80
2022-10-24T23:26:17.271Z,44.92
2022-10-24T23:36:25.041Z,47.50
2022-10-24T23:46:37.451Z,48.13
2022-10-24T23:56:42.178Z,46.53
